Rechercher aéroport 
image banner adimage banner adimage banner ad
image banner ad

CA32 - San Joaquin

Situé à San Joaquin, United States

ICAO - CA32, IATA -

Données fournies par Airmate  

Information générale

Coordonnées: N36°34'60" W120°15'4"
Élévation : 165 feet MSL.
Variation magnétique : 15° East
Voir autres Aéroports à California

Données opérationnelles

Special qualification required
Heure actuelle UTC:
Heure actuelle locale:
Météo à : KNLC - Lemoore Nas (Reeves Fld) ( 39 km )
METAR: KNLC 300056Z 01011KT 10SM FEW050 BKN220 39/13 A2977 RMK SLP080 RH/20 T03940128
TAF: TAF KNLC 2923/3023 01009KT 9999 FEW050 SCT130 BKN220 QNH2973INS TEMPO 3000/3006 33008KT SCT220 FM300600 VRB06KT 9999 SCT220 QNH2971INS T23/3014Z T41/3023Z FS30012
Voir NOTAMs / SUP AIP / TFR affectant cet aéroport [VIEW]
Fréquences de communication: [VIEW]

Pistes:

Identifiant RWYQFULongueur (ft)Largeur (ft)SurfaceLDA (ft)
15250030OTHER
33250030OTHER

Coordonnées de l'aéroport

Adresse: San Joaquin United States

Vue satellite de CA32